Time;durP1;ratioP1;P1;durP2;ratioP2;P2;SDS_P1;SDS_P2;PMS_P1;PMS_P2;Temp;Humidity;BMP_temperature;BMP_pressure;BME280_temperature;BME280_humidity;BME280_pressure;Samples;Min_cycle;Max_cycle;Signal;HPM_P1;HPM_P2
2023/06/24 00:01:25;;;;;;;;;;;16.10;99.90;;;;;;5039052;28;19972;-87
2023/06/24 00:03:53;;;;;;;;;;;16.00;99.90;;;;;;5050670;28;19925;-85
2023/06/24 00:06:19;;;;;;;;;;;15.90;99.90;;;;;;5033876;28;20042;-87
2023/06/24 00:08:45;;;;;;;;;;;15.80;99.90;;;;;;5038194;28;19932;-87
2023/06/24 00:11:11;;;;;;;;;;;15.80;99.90;;;;;;5044496;28;19936;-87
2023/06/24 00:13:37;;;;;;;;;;;15.70;99.90;;;;;;5044048;28;20364;-87
2023/06/24 00:16:02;;;;;;;;;;;15.70;99.90;;;;;;5054279;28;19925;-87
2023/06/24 00:18:29;;;;;;;;;;;15.70;99.90;;;;;;5059920;28;19974;-87
2023/06/24 00:20:55;;;;;;;;;;;15.60;99.90;;;;;;5048868;28;19926;-90
2023/06/24 00:23:25;;;;;;;;;;;15.60;99.90;;;;;;5053840;28;19925;-88
2023/06/24 00:25:54;;;;;;;;;;;15.50;99.90;;;;;;5035156;28;19933;-86
2023/06/24 00:28:20;;;;;;;;;;;15.40;99.90;;;;;;5055283;28;19925;-87
2023/06/24 00:30:49;;;;;;;;;;;15.40;99.90;;;;;;5056651;28;19988;-87
2023/06/24 00:33:15;;;;;;;;;;;15.30;99.90;;;;;;5048382;28;20017;-88
2023/06/24 00:35:40;;;;;;;;;;;15.30;99.90;;;;;;5049145;28;20360;-87
2023/06/24 00:38:06;;;;;;;;;;;15.30;99.90;;;;;;5049528;28;20007;-86
2023/06/24 00:40:32;;;;;;;;;;;15.30;99.90;;;;;;5051203;28;19932;-88
2023/06/24 00:42:58;;;;;;;;;;;15.30;99.90;;;;;;5031300;28;19925;-86
2023/06/24 00:45:23;;;;;;;;;;;15.20;99.90;;;;;;5051448;28;19992;-87
2023/06/24 00:47:49;;;;;;;;;;;15.10;99.90;;;;;;5043152;28;19925;-87
2023/06/24 00:50:15;;;;;;;;;;;15.10;99.90;;;;;;5041599;28;20304;-88
2023/06/24 00:52:42;;;;;;;;;;;15.10;99.90;;;;;;5045124;28;19961;-86
2023/06/24 00:55:12;;;;;;;;;;;15.10;99.90;;;;;;5046433;28;19929;-90
2023/06/24 00:57:39;;;;;;;;;;;15.10;99.90;;;;;;5046897;28;20071;-88
2023/06/24 01:00:09;;;;;;;;;;;15.10;99.90;;;;;;5052768;28;19936;-88
2023/06/24 01:02:37;;;;;;;;;;;15.10;99.90;;;;;;5051030;28;19944;-87
2023/06/24 01:05:05;;;;;;;;;;;15.10;99.90;;;;;;5048279;28;20432;-88
2023/06/24 01:07:31;;;;;;;;;;;15.10;99.90;;;;;;5048622;28;20008;-87
2023/06/24 01:09:57;;;;;;;;;;;15.20;99.90;;;;;;5047641;28;20021;-88
2023/06/24 01:12:23;;;;;;;;;;;15.20;99.90;;;;;;5049931;28;20368;-88
2023/06/24 01:14:49;;;;;;;;;;;15.20;99.90;;;;;;5035173;28;19928;-87
2023/06/24 01:17:28;;;;;;;;;;;15.20;99.90;;;;;;5030571;28;20036;-87
2023/06/24 01:19:59;;;;;;;;;;;15.30;99.90;;;;;;5038776;28;20368;-87
2023/06/24 01:22:48;;;;;;;;;;;15.30;99.90;;;;;;5045326;28;20364;-87
2023/06/24 01:25:34;;;;;;;;;;;15.30;99.90;;;;;;5041444;28;19929;-88
2023/06/24 01:28:29;;;;;;;;;;;15.20;99.90;;;;;;5013722;28;20376;-87
2023/06/24 01:31:10;;;;;;;;;;;15.10;99.90;;;;;;5034627;28;19974;-88
2023/06/24 01:33:42;;;;;;;;;;;15.00;99.90;;;;;;5022312;28;20003;-86
2023/06/24 01:36:09;;;;;;;;;;;15.00;99.90;;;;;;5037312;28;20388;-88
2023/06/24 01:38:36;;;;;;;;;;;14.90;99.90;;;;;;5049737;28;19932;-86
2023/06/24 01:41:03;;;;;;;;;;;14.90;99.90;;;;;;5043717;28;19925;-87
2023/06/24 01:43:29;;;;;;;;;;;14.90;99.90;;;;;;5047481;28;19936;-87
2023/06/24 01:45:55;;;;;;;;;;;14.90;99.90;;;;;;5028307;28;19932;-88
2023/06/24 01:48:25;;;;;;;;;;;14.90;99.90;;;;;;5018384;28;19991;-87
2023/06/24 01:50:57;;;;;;;;;;;14.90;99.90;;;;;;5039978;28;20384;-87
2023/06/24 01:53:23;;;;;;;;;;;14.90;99.90;;;;;;5049947;28;20337;-87
2023/06/24 01:55:49;;;;;;;;;;;14.90;99.90;;;;;;5042859;28;19929;-88
2023/06/24 01:58:17;;;;;;;;;;;14.90;99.90;;;;;;5049475;28;20011;-87
2023/06/24 02:00:42;;;;;;;;;;;14.90;99.90;;;;;;5048447;28;19929;-87
2023/06/24 02:03:08;;;;;;;;;;;15.00;99.90;;;;;;5049683;28;19929;-87
2023/06/24 02:05:36;;;;;;;;;;;14.90;99.90;;;;;;5033117;28;19968;-87
2023/06/24 02:08:02;;;;;;;;;;;15.00;99.90;;;;;;5048743;28;19956;-88
2023/06/24 02:10:29;;;;;;;;;;;15.00;99.90;;;;;;5046739;28;19976;-88
2023/06/24 02:12:55;;;;;;;;;;;15.00;99.90;;;;;;5050605;28;19931;-87
2023/06/24 02:15:22;;;;;;;;;;;15.00;99.90;;;;;;5048029;28;19972;-87
2023/06/24 02:17:51;;;;;;;;;;;15.00;99.90;;;;;;5044963;28;19925;-88
2023/06/24 02:20:17;;;;;;;;;;;15.00;99.90;;;;;;5032192;28;20023;-88
2023/06/24 02:22:44;;;;;;;;;;;15.00;99.90;;;;;;5047822;28;20016;-86
2023/06/24 02:25:09;;;;;;;;;;;14.90;99.90;;;;;;5036363;28;20419;-86
2023/06/24 02:27:36;;;;;;;;;;;14.90;99.90;;;;;;5043977;28;19925;-88
2023/06/24 02:30:02;;;;;;;;;;;14.80;99.90;;;;;;5048054;28;19925;-88
2023/06/24 02:32:28;;;;;;;;;;;14.80;99.90;;;;;;5046610;28;19928;-87
2023/06/24 02:34:54;;;;;;;;;;;14.80;99.90;;;;;;5044705;28;20296;-88
2023/06/24 02:37:19;;;;;;;;;;;14.80;99.90;;;;;;5047034;28;20024;-86
2023/06/24 02:39:45;;;;;;;;;;;14.70;99.90;;;;;;5029329;28;19924;-90
2023/06/24 02:42:11;;;;;;;;;;;14.70;99.90;;;;;;5046240;28;19925;-91
2023/06/24 02:44:38;;;;;;;;;;;14.70;99.90;;;;;;5044868;28;19925;-90
2023/06/24 02:47:05;;;;;;;;;;;14.70;99.90;;;;;;5046629;28;20888;-89
2023/06/24 02:49:30;;;;;;;;;;;14.60;99.90;;;;;;5032220;28;19939;-90
2023/06/24 02:51:57;;;;;;;;;;;14.60;99.90;;;;;;5047259;28;19929;-91
2023/06/24 02:54:22;;;;;;;;;;;14.60;99.90;;;;;;5051045;28;19925;-90
2023/06/24 02:56:48;;;;;;;;;;;14.60;99.90;;;;;;5015647;28;20393;-89
2023/06/24 02:59:14;;;;;;;;;;;14.70;99.90;;;;;;5049390;28;19929;-87
2023/06/24 03:01:39;;;;;;;;;;;14.60;99.90;;;;;;5048174;28;19974;-88
2023/06/24 03:04:05;;;;;;;;;;;14.70;99.90;;;;;;5043714;28;19924;-88
2023/06/24 03:06:31;;;;;;;;;;;14.70;99.90;;;;;;5045437;28;19994;-88
2023/06/24 03:08:57;;;;;;;;;;;14.70;99.90;;;;;;5048845;28;19994;-89
2023/06/24 03:11:23;;;;;;;;;;;14.70;99.90;;;;;;5048499;28;19925;-90
2023/06/24 03:13:48;;;;;;;;;;;14.60;99.90;;;;;;5049546;28;19936;-90
2023/06/24 03:16:14;;;;;;;;;;;14.70;99.90;;;;;;5047598;28;19924;-89
2023/06/24 03:18:41;;;;;;;;;;;14.70;99.90;;;;;;5050227;28;19929;-90
2023/06/24 03:21:07;;;;;;;;;;;14.70;99.90;;;;;;5050725;28;19951;-91
2023/06/24 03:23:33;;;;;;;;;;;14.70;99.90;;;;;;5052502;28;19932;-90
2023/06/24 03:25:58;;;;;;;;;;;14.70;99.90;;;;;;5032522;28;19998;-90
2023/06/24 03:28:24;;;;;;;;;;;14.70;99.90;;;;;;5050965;28;19925;-89
2023/06/24 03:30:49;;;;;;;;;;;14.80;99.90;;;;;;5053685;28;20450;-90
2023/06/24 03:33:16;;;;;;;;;;;14.70;99.90;;;;;;5051104;28;19925;-90
2023/06/24 03:35:42;;;;;;;;;;;14.70;99.90;;;;;;5049478;28;20415;-90
2023/06/24 03:38:08;;;;;;;;;;;14.80;99.90;;;;;;5047699;28;19925;-89
2023/06/24 03:40:34;;;;;;;;;;;14.80;99.90;;;;;;5044310;28;19936;-87
2023/06/24 03:42:59;;;;;;;;;;;14.80;99.90;;;;;;5053400;28;20008;-90
2023/06/24 03:45:25;;;;;;;;;;;14.80;99.90;;;;;;5048314;28;19979;-87
2023/06/24 03:47:50;;;;;;;;;;;14.80;99.90;;;;;;5048904;28;20421;-86
2023/06/24 03:50:16;;;;;;;;;;;14.80;99.90;;;;;;5032410;28;19932;-87
2023/06/24 03:52:43;;;;;;;;;;;14.90;99.90;;;;;;5036656;28;20323;-88
2023/06/24 03:55:09;;;;;;;;;;;14.90;99.90;;;;;;5036793;28;19933;-87
2023/06/24 03:57:35;;;;;;;;;;;15.00;99.90;;;;;;5048818;28;19925;-88
2023/06/24 04:00:00;;;;;;;;;;;15.10;99.90;;;;;;5047776;28;19925;-88
2023/06/24 04:02:26;;;;;;;;;;;15.20;99.90;;;;;;5045153;28;19928;-87
2023/06/24 04:04:52;;;;;;;;;;;15.20;99.90;;;;;;5018050;28;19925;-87
2023/06/24 04:07:27;;;;;;;;;;;15.30;99.90;;;;;;5033080;28;19994;-87
2023/06/24 04:09:56;;;;;;;;;;;15.30;99.90;;;;;;5048233;28;20637;-87
2023/06/24 04:12:22;;;;;;;;;;;15.30;99.90;;;;;;5031833;28;19925;-87
2023/06/24 04:14:47;;;;;;;;;;;15.30;99.90;;;;;;5050756;28;19925;-88
2023/06/24 04:17:13;;;;;;;;;;;15.30;99.90;;;;;;5007526;28;20653;-89
2023/06/24 04:19:39;;;;;;;;;;;15.40;99.90;;;;;;5049888;28;19929;-88
2023/06/24 04:22:05;;;;;;;;;;;15.50;99.90;;;;;;5051860;28;19928;-87
2023/06/24 04:24:31;;;;;;;;;;;15.50;99.90;;;;;;5044110;28;19925;-88
2023/06/24 04:26:57;;;;;;;;;;;15.60;99.90;;;;;;5045718;28;19925;-88
2023/06/24 04:29:23;;;;;;;;;;;15.70;99.90;;;;;;5049649;28;20020;-89
2023/06/24 04:31:48;;;;;;;;;;;15.80;99.90;;;;;;5048816;28;20011;-87
2023/06/24 04:34:14;;;;;;;;;;;15.80;99.90;;;;;;5041825;28;19925;-88
2023/06/24 04:36:39;;;;;;;;;;;15.90;99.90;;;;;;5047603;28;20023;-88
2023/06/24 04:39:05;;;;;;;;;;;15.90;99.90;;;;;;5045887;28;20262;-87
2023/06/24 04:41:32;;;;;;;;;;;15.90;99.90;;;;;;5017785;28;19937;-88
2023/06/24 04:43:57;;;;;;;;;;;16.00;99.90;;;;;;5051347;28;20019;-88
2023/06/24 04:46:23;;;;;;;;;;;16.00;99.90;;;;;;5046306;28;20008;-88
2023/06/24 04:48:49;;;;;;;;;;;16.10;99.90;;;;;;5062051;28;19935;-89
2023/06/24 04:51:14;;;;;;;;;;;16.10;99.90;;;;;;5046433;28;20382;-87
2023/06/24 04:53:40;;;;;;;;;;;16.20;99.90;;;;;;5054325;28;19929;-90
2023/06/24 04:56:06;;;;;;;;;;;16.30;99.90;;;;;;5050942;28;19933;-90
2023/06/24 04:58:31;;;;;;;;;;;16.30;99.90;;;;;;5055230;28;19929;-87
2023/06/24 05:00:57;;;;;;;;;;;16.40;99.90;;;;;;5064488;28;19924;-88
2023/06/24 05:03:22;;;;;;;;;;;16.40;99.90;;;;;;5053501;28;20316;-86
2023/06/24 05:05:48;;;;;;;;;;;16.50;99.90;;;;;;5045868;28;19928;-86
2023/06/24 05:08:14;;;;;;;;;;;16.50;99.90;;;;;;5044370;28;19926;-87
2023/06/24 05:10:39;;;;;;;;;;;16.50;99.90;;;;;;5048771;28;19964;-86
2023/06/24 05:13:05;;;;;;;;;;;16.50;99.90;;;;;;5050515;28;19932;-87
2023/06/24 05:15:30;;;;;;;;;;;16.50;99.90;;;;;;5051408;28;19925;-86
2023/06/24 05:17:56;;;;;;;;;;;16.50;99.90;;;;;;5051660;28;19968;-87
2023/06/24 05:20:22;;;;;;;;;;;16.50;99.90;;;;;;5049221;28;20011;-87
2023/06/24 05:22:47;;;;;;;;;;;16.50;99.90;;;;;;5045511;28;19925;-86
2023/06/24 05:25:14;;;;;;;;;;;16.60;99.90;;;;;;5028053;28;19929;-86
2023/06/24 05:27:39;;;;;;;;;;;16.60;99.90;;;;;;5042829;28;19924;-87
2023/06/24 05:30:05;;;;;;;;;;;16.60;99.90;;;;;;5040954;28;19924;-87
2023/06/24 05:32:31;;;;;;;;;;;16.70;99.90;;;;;;5041302;28;19925;-87
2023/06/24 05:34:57;;;;;;;;;;;16.70;99.90;;;;;;5041650;28;19925;-87
2023/06/24 05:37:22;;;;;;;;;;;16.70;99.90;;;;;;5050804;28;19936;-87
2023/06/24 05:39:48;;;;;;;;;;;16.80;99.90;;;;;;5050919;28;19935;-86
2023/06/24 05:42:14;;;;;;;;;;;16.80;99.90;;;;;;5046357;28;19988;-87
2023/06/24 05:44:39;;;;;;;;;;;16.90;99.90;;;;;;5045070;28;20599;-86
2023/06/24 05:47:05;;;;;;;;;;;17.10;99.90;;;;;;5045426;28;19925;-86
2023/06/24 05:49:30;;;;;;;;;;;17.10;99.90;;;;;;5050199;28;20062;-87
2023/06/24 05:51:56;;;;;;;;;;;17.20;99.90;;;;;;5049236;28;20483;-86
2023/06/24 05:54:22;;;;;;;;;;;17.20;99.90;;;;;;5046500;28;19964;-87
2023/06/24 05:56:47;;;;;;;;;;;17.30;99.90;;;;;;5041416;28;19935;-87
2023/06/24 05:59:13;;;;;;;;;;;17.40;99.90;;;;;;5047043;28;19928;-87
2023/06/24 06:01:39;;;;;;;;;;;17.50;99.90;;;;;;5046664;28;20385;-87
2023/06/24 06:04:04;;;;;;;;;;;17.60;99.90;;;;;;5042994;28;19925;-87
2023/06/24 06:06:30;;;;;;;;;;;17.60;99.90;;;;;;5040847;28;19968;-87
2023/06/24 06:08:56;;;;;;;;;;;17.70;99.90;;;;;;5049626;28;19929;-86
2023/06/24 06:11:21;;;;;;;;;;;17.80;99.90;;;;;;5047804;28;19925;-87
2023/06/24 06:13:47;;;;;;;;;;;17.80;99.90;;;;;;5048244;28;19925;-86
2023/06/24 06:16:13;;;;;;;;;;;17.90;99.90;;;;;;5032467;28;20372;-86
2023/06/24 06:18:38;;;;;;;;;;;18.00;99.90;;;;;;5031344;28;20012;-86
2023/06/24 06:21:04;;;;;;;;;;;18.00;99.90;;;;;;5050362;28;19963;-87
2023/06/24 06:23:29;;;;;;;;;;;18.10;99.90;;;;;;5032825;28;19975;-87
2023/06/24 06:25:55;;;;;;;;;;;18.20;99.90;;;;;;5046853;28;19933;-86
2023/06/24 06:28:21;;;;;;;;;;;18.40;99.90;;;;;;5046922;28;20415;-85
2023/06/24 06:30:46;;;;;;;;;;;18.50;99.90;;;;;;5049495;28;19971;-85
2023/06/24 06:33:12;;;;;;;;;;;18.70;99.90;;;;;;5049475;28;19987;-86
2023/06/24 06:35:37;;;;;;;;;;;18.90;99.90;;;;;;5050041;28;20274;-86
2023/06/24 06:38:04;;;;;;;;;;;19.00;99.90;;;;;;5012282;28;19932;-85
2023/06/24 06:40:30;;;;;;;;;;;19.20;99.90;;;;;;5042948;28;19964;-84
2023/06/24 06:42:55;;;;;;;;;;;19.40;99.90;;;;;;5040737;28;19987;-85
2023/06/24 06:45:21;;;;;;;;;;;19.50;99.90;;;;;;5044984;28;20016;-87
2023/06/24 06:47:46;;;;;;;;;;;19.60;99.90;;;;;;5049065;28;19925;-85
2023/06/24 06:50:12;;;;;;;;;;;19.70;99.90;;;;;;5037801;28;19929;-86
2023/06/24 06:52:38;;;;;;;;;;;19.80;99.90;;;;;;5042276;28;20292;-85
2023/06/24 06:55:04;;;;;;;;;;;19.90;99.90;;;;;;5050322;28;19925;-86
2023/06/24 06:57:30;;;;;;;;;;;20.10;99.90;;;;;;5051498;28;20276;-87
2023/06/24 06:59:56;;;;;;;;;;;20.20;99.90;;;;;;5028206;28;19948;-88
2023/06/24 07:02:21;;;;;;;;;;;20.40;99.90;;;;;;5050346;28;20008;-88
2023/06/24 07:04:47;;;;;;;;;;;20.50;99.90;;;;;;5042851;28;20063;-91
2023/06/24 07:07:13;;;;;;;;;;;20.60;99.90;;;;;;5040426;28;20324;-90
2023/06/24 07:09:39;;;;;;;;;;;20.80;99.90;;;;;;5052431;28;19928;-89
2023/06/24 07:12:05;;;;;;;;;;;20.90;99.90;;;;;;5037353;28;19925;-94
2023/06/24 07:14:31;;;;;;;;;;;21.00;99.90;;;;;;5037125;28;19925;-90
2023/06/24 07:16:57;;;;;;;;;;;21.10;99.90;;;;;;5036819;28;19924;-89
2023/06/24 07:19:22;;;;;;;;;;;21.20;99.90;;;;;;5053325;28;20326;-90
2023/06/24 07:21:48;;;;;;;;;;;21.30;99.90;;;;;;5051806;28;19931;-91
2023/06/24 07:24:13;;;;;;;;;;;21.30;99.90;;;;;;5052059;28;19974;-88
2023/06/24 07:26:39;;;;;;;;;;;21.40;99.90;;;;;;5042583;28;20019;-86
2023/06/24 07:29:08;;;;;;;;;;;21.40;99.90;;;;;;5047058;28;20419;-91
2023/06/24 07:31:34;;;;;;;;;;;21.50;99.90;;;;;;5053767;28;19933;-88
2023/06/24 07:33:59;;;;;;;;;;;21.50;99.90;;;;;;5031712;28;19999;-92
2023/06/24 07:36:25;;;;;;;;;;;21.60;99.90;;;;;;5053884;28;20384;-90
2023/06/24 07:38:51;;;;;;;;;;;21.60;99.90;;;;;;5051220;28;19971;-89
2023/06/24 07:41:16;;;;;;;;;;;21.70;99.90;;;;;;5029944;28;20373;-87
2023/06/24 07:43:42;;;;;;;;;;;21.80;99.90;;;;;;5027719;28;19972;-88
2023/06/24 07:46:08;;;;;;;;;;;21.90;99.90;;;;;;5052972;28;19925;-89
2023/06/24 07:48:33;;;;;;;;;;;22.00;99.90;;;;;;5052281;28;19925;-86
2023/06/24 07:50:59;;;;;;;;;;;22.20;99.90;;;;;;5054482;28;19933;-87
2023/06/24 07:53:24;;;;;;;;;;;22.30;99.90;;;;;;5047102;28;19925;-88
2023/06/24 07:55:50;;;;;;;;;;;22.50;99.90;;;;;;5049027;28;20059;-88
2023/06/24 07:58:16;;;;;;;;;;;22.50;99.90;;;;;;5047151;28;20604;-86
2023/06/24 08:00:42;;;;;;;;;;;22.60;99.90;;;;;;5045797;28;19989;-86
2023/06/24 08:03:08;;;;;;;;;;;22.60;99.90;;;;;;5047931;28;20035;-87
2023/06/24 08:05:33;;;;;;;;;;;22.70;99.90;;;;;;5048856;28;19932;-86
2023/06/24 08:07:59;;;;;;;;;;;22.80;99.90;;;;;;5035566;28;19933;-87
2023/06/24 08:10:24;;;;;;;;;;;22.90;99.90;;;;;;5053210;28;19925;-87
2023/06/24 08:12:50;;;;;;;;;;;23.00;99.90;;;;;;5055320;28;19925;-87
2023/06/24 08:15:16;;;;;;;;;;;23.10;99.90;;;;;;5050607;28;20443;-88
2023/06/24 08:17:42;;;;;;;;;;;23.20;99.90;;;;;;5051867;28;19939;-87
2023/06/24 08:20:07;;;;;;;;;;;23.40;99.90;;;;;;5049685;28;19951;-87
2023/06/24 08:22:33;;;;;;;;;;;23.50;99.90;;;;;;5051875;28;19925;-87
2023/06/24 08:24:59;;;;;;;;;;;23.50;99.90;;;;;;5034292;28;19935;-87
2023/06/24 08:27:24;;;;;;;;;;;23.70;99.90;;;;;;5054150;28;19940;-87
2023/06/24 08:29:50;;;;;;;;;;;23.80;99.90;;;;;;5036137;28;19928;-87
2023/06/24 08:32:15;;;;;;;;;;;23.80;99.90;;;;;;5051520;28;19928;-86
2023/06/24 08:34:41;;;;;;;;;;;23.80;99.90;;;;;;5053471;28;19976;-87
2023/06/24 08:37:07;;;;;;;;;;;23.70;99.90;;;;;;5052918;28;19925;-87
2023/06/24 08:39:33;;;;;;;;;;;23.80;99.90;;;;;;5054034;28;20008;-87
2023/06/24 08:41:59;;;;;;;;;;;23.90;99.90;;;;;;5052855;28;20011;-87
2023/06/24 08:44:24;;;;;;;;;;;23.90;99.90;;;;;;5034494;28;20103;-87
2023/06/24 08:46:50;;;;;;;;;;;24.00;99.90;;;;;;5047063;28;19967;-86
2023/06/24 08:49:18;;;;;;;;;;;24.00;99.90;;;;;;5022926;28;19975;-87
2023/06/24 08:51:46;;;;;;;;;;;24.10;99.90;;;;;;5046727;28;19925;-87
2023/06/24 08:54:14;;;;;;;;;;;24.10;99.90;;;;;;5049551;28;20413;-84
2023/06/24 08:56:40;;;;;;;;;;;24.10;99.90;;;;;;5052377;28;19925;-87
2023/06/24 08:59:06;;;;;;;;;;;24.00;99.90;;;;;;5043343;28;19925;-87
2023/06/24 09:01:32;;;;;;;;;;;24.00;99.90;;;;;;5045983;28;19962;-89
2023/06/24 09:03:57;;;;;;;;;;;24.00;99.90;;;;;;5046787;28;19932;-89
2023/06/24 09:06:23;;;;;;;;;;;24.00;99.90;;;;;;5043759;28;20381;-88
2023/06/24 09:08:53;;;;;;;;;;;24.00;99.90;;;;;;5050336;28;19929;-90
2023/06/24 09:11:22;;;;;;;;;;;24.10;99.90;;;;;;5027180;28;19925;-89
2023/06/24 09:13:47;;;;;;;;;;;24.10;99.90;;;;;;5054450;28;20016;-89
2023/06/24 09:16:16;;;;;;;;;;;24.10;99.90;;;;;;5042613;28;20016;-89
2023/06/24 09:18:47;;;;;;;;;;;24.20;99.90;;;;;;5050404;28;19932;-89
2023/06/24 09:21:13;;;;;;;;;;;24.40;99.90;;;;;;5059367;28;20327;-88
2023/06/24 09:23:39;;;;;;;;;;;24.50;99.90;;;;;;5055884;28;20399;-89
2023/06/24 09:26:09;;;;;;;;;;;24.60;99.90;;;;;;5051273;28;19924;-90
2023/06/24 09:28:34;;;;;;;;;;;24.60;99.90;;;;;;5054934;28;19932;-88
2023/06/24 09:31:07;;;;;;;;;;;24.70;99.90;;;;;;5062169;28;19924;-91
2023/06/24 09:33:34;;;;;;;;;;;24.60;99.90;;;;;;5054825;28;19925;-90
2023/06/24 09:36:01;;;;;;;;;;;24.50;99.90;;;;;;5041802;28;20012;-90
2023/06/24 09:38:35;;;;;;;;;;;24.60;99.90;;;;;;5044915;28;19925;-89
2023/06/24 09:41:04;;;;;;;;;;;24.70;99.90;;;;;;5027611;28;20380;-89
2023/06/24 09:43:30;;;;;;;;;;;24.90;99.90;;;;;;5053745;28;20555;-91
2023/06/24 09:45:57;;;;;;;;;;;24.90;99.90;;;;;;5053530;28;20015;-90
2023/06/24 09:48:22;;;;;;;;;;;24.90;99.90;;;;;;5037994;28;19979;-91
2023/06/24 09:50:48;;;;;;;;;;;24.90;99.90;;;;;;5051509;28;20388;-91
2023/06/24 09:53:14;;;;;;;;;;;25.10;99.90;;;;;;5054126;28;20016;-90
2023/06/24 09:55:43;;;;;;;;;;;25.20;99.90;;;;;;5053388;28;19936;-91
2023/06/24 09:58:10;;;;;;;;;;;25.30;99.90;;;;;;5034674;28;19967;-90
2023/06/24 10:00:36;;;;;;;;;;;25.40;99.90;;;;;;5051522;28;19975;-89
2023/06/24 10:03:02;;;;;;;;;;;25.50;99.90;;;;;;5051373;28;19960;-90
2023/06/24 10:05:28;;;;;;;;;;;25.60;99.90;;;;;;5033953;28;19925;-91
2023/06/24 10:07:53;;;;;;;;;;;25.70;99.90;;;;;;5049000;28;20245;-91
2023/06/24 10:10:19;;;;;;;;;;;25.80;98.90;;;;;;5047463;28;19980;-90
2023/06/24 10:12:44;;;;;;;;;;;25.80;98.90;;;;;;5014697;28;19925;-89
2023/06/24 10:15:11;;;;;;;;;;;25.90;98.60;;;;;;5045956;28;19925;-90
2023/06/24 10:17:37;;;;;;;;;;;25.80;97.50;;;;;;5051415;28;19971;-86
2023/06/24 10:20:06;;;;;;;;;;;25.90;97.60;;;;;;5048954;28;19925;-87
2023/06/24 10:22:31;;;;;;;;;;;26.10;97.10;;;;;;5052005;28;20016;-89
2023/06/24 10:25:01;;;;;;;;;;;26.10;95.70;;;;;;5043433;28;20063;-89
2023/06/24 10:27:31;;;;;;;;;;;26.10;96.30;;;;;;5050010;28;19928;-88
2023/06/24 10:30:01;;;;;;;;;;;26.20;96.60;;;;;;5046687;28;19929;-88
2023/06/24 10:32:38;;;;;;;;;;;26.40;97.20;;;;;;5054234;28;19929;-88
2023/06/24 10:35:05;;;;;;;;;;;26.50;95.90;;;;;;5047559;28;20050;-88
2023/06/24 10:37:31;;;;;;;;;;;26.60;94.60;;;;;;5053766;28;19936;-88
2023/06/24 10:39:57;;;;;;;;;;;26.50;93.80;;;;;;5049404;28;19929;-88
2023/06/24 10:42:23;;;;;;;;;;;26.50;92.50;;;;;;5052020;28;19931;-89
2023/06/24 10:44:49;;;;;;;;;;;26.60;92.50;;;;;;5053548;28;19928;-87
2023/06/24 10:47:15;;;;;;;;;;;26.80;93.90;;;;;;5050389;28;20024;-91
2023/06/24 10:49:40;;;;;;;;;;;26.90;93.80;;;;;;5052656;28;19931;-88
2023/06/24 10:52:10;;;;;;;;;;;26.80;92.30;;;;;;5049089;28;20015;-87
2023/06/24 10:54:39;;;;;;;;;;;26.90;93.70;;;;;;5052119;28;19964;-88
2023/06/24 10:57:05;;;;;;;;;;;27.10;92.80;;;;;;5036679;28;19931;-89
2023/06/24 10:59:34;;;;;;;;;;;27.20;93.20;;;;;;5052251;28;19925;-89
2023/06/24 11:01:59;;;;;;;;;;;27.30;92.20;;;;;;5053541;28;20022;-87
2023/06/24 11:04:25;;;;;;;;;;;26.90;91.60;;;;;;5051762;28;19964;-87
2023/06/24 11:07:00;;;;;;;;;;;26.60;95.00;;;;;;5050768;28;19936;-89
2023/06/24 11:09:26;;;;;;;;;;;26.40;93.80;;;;;;5050162;28;19925;-88
2023/06/24 11:11:52;;;;;;;;;;;26.60;94.10;;;;;;5053418;28;19932;-87
2023/06/24 11:14:19;;;;;;;;;;;26.60;93.20;;;;;;5047938;28;19948;-89
2023/06/24 11:16:48;;;;;;;;;;;26.70;93.40;;;;;;5050185;28;19924;-89
2023/06/24 11:19:13;;;;;;;;;;;26.90;92.00;;;;;;5046975;28;20008;-89
2023/06/24 11:21:39;;;;;;;;;;;27.10;93.10;;;;;;5053610;28;19991;-88
2023/06/24 11:24:05;;;;;;;;;;;27.40;92.60;;;;;;5034998;28;20008;-94
2023/06/24 11:26:31;;;;;;;;;;;27.40;89.20;;;;;;5049958;28;20050;-94
2023/06/24 11:28:56;;;;;;;;;;;27.20;91.90;;;;;;5052487;28;19929;-91
2023/06/24 11:31:25;;;;;;;;;;;26.90;91.90;;;;;;5036334;28;19936;-89
2023/06/24 11:33:51;;;;;;;;;;;26.80;93.90;;;;;;5050814;28;19932;-89
2023/06/24 11:36:20;;;;;;;;;;;26.70;92.90;;;;;;5051025;28;19986;-89
2023/06/24 11:38:46;;;;;;;;;;;26.80;92.90;;;;;;5050709;28;19930;-88
2023/06/24 11:41:11;;;;;;;;;;;27.00;92.20;;;;;;5043923;28;20297;-88
2023/06/24 11:43:37;;;;;;;;;;;27.20;91.70;;;;;;5039164;28;20407;-87
2023/06/24 11:46:03;;;;;;;;;;;27.20;91.70;;;;;;5045782;28;19924;-89
2023/06/24 11:48:29;;;;;;;;;;;27.00;91.80;;;;;;5053566;28;19933;-89
2023/06/24 11:50:55;;;;;;;;;;;26.80;93.40;;;;;;5041443;28;19925;-89
2023/06/24 11:53:49;;;;;;;;;;;26.70;91.90;;;;;;5047786;28;20015;-89
2023/06/24 11:56:15;;;;;;;;;;;26.70;92.40;;;;;;5028968;28;20035;-89
2023/06/24 11:58:42;;;;;;;;;;;26.80;93.10;;;;;;5050310;28;20027;-90
2023/06/24 12:01:08;;;;;;;;;;;27.00;92.90;;;;;;5039564;28;19932;-88
2023/06/24 12:03:34;;;;;;;;;;;27.00;91.50;;;;;;5049672;28;19928;-89
2023/06/24 12:06:00;;;;;;;;;;;26.90;93.10;;;;;;5050767;28;19932;-89
2023/06/24 12:08:26;;;;;;;;;;;27.10;91.70;;;;;;5039455;28;19974;-90
2023/06/24 12:10:51;;;;;;;;;;;27.20;90.80;;;;;;5047936;28;19975;-89
2023/06/24 12:13:17;;;;;;;;;;;27.10;91.60;;;;;;5049396;28;20543;-90
2023/06/24 12:15:43;;;;;;;;;;;26.90;92.20;;;;;;5050040;28;19932;-90
2023/06/24 12:18:09;;;;;;;;;;;26.80;91.70;;;;;;5052708;28;19951;-87
2023/06/24 12:20:36;;;;;;;;;;;26.90;91.30;;;;;;5045188;28;19936;-90
2023/06/24 12:23:03;;;;;;;;;;;27.20;92.90;;;;;;5052933;28;20412;-88
2023/06/24 12:25:29;;;;;;;;;;;27.40;90.80;;;;;;5047644;28;19955;-88
2023/06/24 12:27:54;;;;;;;;;;;27.50;92.20;;;;;;5048017;28;20360;-89
2023/06/24 12:30:21;;;;;;;;;;;27.70;88.90;;;;;;5052953;28;19928;-87
2023/06/24 12:32:46;;;;;;;;;;;27.40;89.40;;;;;;5052604;28;19933;-89
2023/06/24 12:35:12;;;;;;;;;;;27.20;90.50;;;;;;5035506;28;20285;-88
2023/06/24 12:37:38;;;;;;;;;;;26.90;90.10;;;;;;5051863;28;20020;-89
2023/06/24 12:40:04;;;;;;;;;;;26.70;90.10;;;;;;5041849;28;20373;-91
2023/06/24 12:42:29;;;;;;;;;;;26.70;89.00;;;;;;5051656;28;19959;-89
2023/06/24 12:44:55;;;;;;;;;;;26.80;90.90;;;;;;5031662;28;20384;-91
2023/06/24 12:47:21;;;;;;;;;;;27.10;92.90;;;;;;5051240;28;19924;-91
2023/06/24 12:49:47;;;;;;;;;;;27.30;91.50;;;;;;5040431;28;19925;-91
2023/06/24 12:52:13;;;;;;;;;;;27.40;89.50;;;;;;5027780;28;19967;-90
2023/06/24 12:54:38;;;;;;;;;;;27.40;90.90;;;;;;5052535;28;19932;-90
2023/06/24 12:57:07;;;;;;;;;;;27.60;90.10;;;;;;5050145;28;19932;-89
2023/06/24 12:59:33;;;;;;;;;;;27.70;91.20;;;;;;5051588;28;19925;-88
2023/06/24 13:01:58;;;;;;;;;;;28.00;90.90;;;;;;5048352;28;20289;-89
2023/06/24 13:04:24;;;;;;;;;;;27.90;90.60;;;;;;5052635;28;19948;-88
2023/06/24 13:06:53;;;;;;;;;;;27.90;90.50;;;;;;5051021;28;19925;-88
2023/06/24 13:09:19;;;;;;;;;;;27.70;90.30;;;;;;5047860;28;19951;-87
2023/06/24 13:11:44;;;;;;;;;;;27.50;90.30;;;;;;5038940;28;19925;-89
2023/06/24 13:14:10;;;;;;;;;;;27.20;89.80;;;;;;5042066;28;20003;-89
2023/06/24 13:16:36;;;;;;;;;;;27.10;91.00;;;;;;5054559;28;19996;-89
2023/06/24 13:19:02;;;;;;;;;;;26.80;91.20;;;;;;5052104;28;19932;-89
2023/06/24 13:21:27;;;;;;;;;;;26.70;90.60;;;;;;5051015;28;19933;-91
2023/06/24 13:23:53;;;;;;;;;;;26.50;90.40;;;;;;5042887;28;19975;-89
2023/06/24 13:26:18;;;;;;;;;;;26.60;92.00;;;;;;5032805;28;19928;-87
2023/06/24 13:28:44;;;;;;;;;;;26.70;90.50;;;;;;5040584;28;20004;-90
2023/06/24 13:31:09;;;;;;;;;;;26.90;91.90;;;;;;5051125;28;20007;-88
2023/06/24 13:33:35;;;;;;;;;;;27.20;91.50;;;;;;5051334;28;19931;-89
2023/06/24 13:36:02;;;;;;;;;;;27.30;91.20;;;;;;5043091;28;20003;-89
2023/06/24 13:38:28;;;;;;;;;;;27.50;92.30;;;;;;5037648;28;19948;-89
2023/06/24 13:40:53;;;;;;;;;;;27.50;91.20;;;;;;5045564;28;19929;-90
2023/06/24 13:43:19;;;;;;;;;;;27.60;91.70;;;;;;5035964;28;19940;-90
2023/06/24 13:45:45;;;;;;;;;;;27.70;92.00;;;;;;5037035;28;19951;-88
2023/06/24 13:48:10;;;;;;;;;;;28.00;90.60;;;;;;5052594;28;19932;-88
2023/06/24 13:50:36;;;;;;;;;;;28.10;90.50;;;;;;5046493;28;19929;-88
2023/06/24 13:53:01;;;;;;;;;;;28.10;91.10;;;;;;5053400;28;20459;-88
2023/06/24 13:55:27;;;;;;;;;;;28.00;89.50;;;;;;5065851;28;19913;-89
2023/06/24 13:57:53;;;;;;;;;;;28.00;90.40;;;;;;5051403;28;20349;-88
2023/06/24 14:00:18;;;;;;;;;;;28.00;91.30;;;;;;5049393;28;19929;-88
2023/06/24 14:02:44;;;;;;;;;;;28.10;90.30;;;;;;5052355;28;19944;-88
2023/06/24 14:05:10;;;;;;;;;;;28.10;90.60;;;;;;5060966;28;19935;-89
2023/06/24 14:07:35;;;;;;;;;;;28.10;91.20;;;;;;5038929;28;19978;-88
2023/06/24 14:10:01;;;;;;;;;;;28.20;87.60;;;;;;5048866;28;19943;-89
2023/06/24 14:12:26;;;;;;;;;;;28.20;89.60;;;;;;5033431;28;20026;-87